Terminal Aerodrome Forecast
Issued by NWS

Home | Current Version | Previous Version | Graphics & Text | Print | Product List | Glossary On
Versions: 1 2 3 4 5 6 7 8 9 10 11 12 13 14 15 16 17 18
000
FTUS43 KMPX 222300 RRA
TAFAXN
TAF
KAXN 222344Z 2300/2324 11011KT 3SM -SN BR OVC004
     FM231200 03012KT 1 1/2SM -SN BR OVC004
     FM231800 36013KT 6SM -SN BR OVC007=

USA.gov is the U.S. government's official web portal to all federal, state and local government web resources and services.